createdAt,value
2023-04-25T00:00:23.992Z,14.47
2023-04-25T00:02:53.331Z,13.57
2023-04-25T00:05:21.942Z,12.80
2023-04-25T00:07:49.759Z,11.80
2023-04-25T00:10:17.537Z,11.63
2023-04-25T00:12:45.291Z,10.33
2023-04-25T00:15:13.495Z,10.73
2023-04-25T00:17:41.231Z,9.57
2023-04-25T00:20:11.733Z,9.13
2023-04-25T00:22:39.497Z,9.47
2023-04-25T00:25:07.571Z,9.13
2023-04-25T00:27:35.295Z,9.47
2023-04-25T00:30:06.308Z,9.03
2023-04-25T00:32:34.088Z,8.50
2023-04-25T00:35:01.856Z,7.70
2023-04-25T00:37:31.227Z,6.87
2023-04-25T00:39:59.848Z,5.30
2023-04-25T00:42:27.601Z,5.00
2023-04-25T00:44:55.376Z,4.80
2023-04-25T00:47:23.773Z,4.30
2023-04-25T00:49:51.574Z,4.30
2023-04-25T00:52:19.392Z,4.63
2023-04-25T00:54:48.568Z,4.77
2023-04-25T00:57:16.603Z,4.30
2023-04-25T00:59:47.361Z,4.90
2023-04-25T01:02:15.624Z,4.87
2023-04-25T01:04:43.530Z,4.40
2023-04-25T01:07:11.888Z,4.60
2023-04-25T01:09:39.872Z,4.20
2023-04-25T01:12:09.093Z,4.33
2023-04-25T01:14:36.899Z,4.20
2023-04-25T01:17:04.848Z,4.17
2023-04-25T01:19:32.634Z,4.57
2023-04-25T01:22:01.959Z,4.70
2023-04-25T01:24:29.725Z,4.40
2023-04-25T01:26:57.655Z,4.33
2023-04-25T01:29:25.908Z,4.40
2023-04-25T01:31:53.955Z,4.23
2023-04-25T01:34:21.813Z,3.80
2023-04-25T01:36:51.080Z,4.13
2023-04-25T01:39:20.616Z,4.20
2023-04-25T01:41:48.589Z,4.30
2023-04-25T01:44:16.700Z,4.40
2023-04-25T01:46:44.625Z,4.37
2023-04-25T01:49:12.317Z,4.60
2023-04-25T01:51:40.102Z,4.43
2023-04-25T01:54:08.441Z,3.90
2023-04-25T01:56:38.741Z,3.67
2023-04-25T01:59:06.636Z,4.20
2023-04-25T02:01:34.575Z,4.10
2023-04-25T02:04:02.633Z,3.97
2023-04-25T02:06:31.915Z,4.23
2023-04-25T02:08:59.632Z,4.07
2023-04-25T02:11:27.438Z,4.30
2023-04-25T02:13:56.583Z,3.90
2023-04-25T02:16:24.570Z,3.73
2023-04-25T02:18:56.615Z,4.20
2023-04-25T02:21:24.370Z,4.30
2023-04-25T02:23:53.335Z,4.40
2023-04-25T02:26:22.058Z,4.40
2023-04-25T02:28:50.515Z,4.10
2023-04-25T02:31:25.582Z,4.10
2023-04-25T02:33:53.767Z,4.23
2023-04-25T02:36:21.517Z,4.17
2023-04-25T02:38:49.220Z,4.20
2023-04-25T02:41:17.035Z,3.90
2023-04-25T02:43:44.805Z,3.60
2023-04-25T02:46:12.695Z,3.90
2023-04-25T02:48:41.878Z,4.10
2023-04-25T02:51:09.684Z,4.10
2023-04-25T02:53:37.417Z,3.70
2023-04-25T02:56:05.351Z,3.90
2023-04-25T02:58:33.114Z,4.03
2023-04-25T03:01:01.710Z,3.87
2023-04-25T03:03:29.628Z,3.83
2023-04-25T03:05:58.852Z,3.67
2023-04-25T03:08:30.523Z,4.17
2023-04-25T03:10:58.532Z,3.73
2023-04-25T03:13:26.787Z,3.80
2023-04-25T03:15:54.505Z,3.37
2023-04-25T03:18:22.229Z,3.30
2023-04-25T03:20:52.552Z,3.70
2023-04-25T03:23:21.795Z,3.50
2023-04-25T03:25:49.525Z,4.00
2023-04-25T03:28:17.265Z,3.90
2023-04-25T03:30:45.022Z,3.57
2023-04-25T03:33:12.794Z,3.57
2023-04-25T03:35:40.641Z,3.60
2023-04-25T03:38:08.517Z,4.10
2023-04-25T03:40:37.606Z,3.47
2023-04-25T03:43:05.349Z,4.10
2023-04-25T03:45:33.091Z,3.80
2023-04-25T03:48:01.230Z,3.90
2023-04-25T03:50:28.990Z,4.20
2023-04-25T03:52:56.744Z,3.73
2023-04-25T03:55:24.512Z,3.83
2023-04-25T03:57:53.733Z,4.07
2023-04-25T04:00:21.500Z,3.80
2023-04-25T04:02:49.391Z,3.90
2023-04-25T04:05:17.271Z,3.60
2023-04-25T04:07:45.096Z,3.70
2023-04-25T04:10:13.267Z,3.80
2023-04-25T04:12:40.962Z,4.33
2023-04-25T04:15:11.843Z,3.97
2023-04-25T04:17:39.834Z,4.10
2023-04-25T04:20:08.827Z,4.30
2023-04-25T04:22:37.234Z,3.90
2023-04-25T04:25:06.995Z,4.20
2023-04-25T04:27:35.505Z,4.00
2023-04-25T04:30:04.382Z,3.57
2023-04-25T04:32:34.484Z,4.37
2023-04-25T04:35:02.233Z,3.90
2023-04-25T04:37:29.996Z,3.77
2023-04-25T04:39:57.762Z,3.93
2023-04-25T04:42:26.378Z,3.90
2023-04-25T04:44:55.995Z,3.90
2023-04-25T04:47:24.786Z,4.20
2023-04-25T04:49:53.971Z,3.97
2023-04-25T04:52:21.724Z,3.90
2023-04-25T04:54:49.433Z,4.10
2023-04-25T04:57:20.085Z,4.30
2023-04-25T04:59:47.843Z,4.10
2023-04-25T05:02:15.631Z,4.13
2023-04-25T05:04:43.430Z,3.80
2023-04-25T05:07:12.647Z,3.67
2023-04-25T05:09:40.518Z,3.50
2023-04-25T05:12:08.308Z,3.40
2023-04-25T05:14:36.140Z,3.70
2023-04-25T05:17:05.806Z,3.40
2023-04-25T05:19:36.332Z,3.70
2023-04-25T05:22:04.177Z,3.37
2023-04-25T05:24:33.290Z,3.60
2023-04-25T05:27:01.071Z,3.40
2023-04-25T05:29:28.869Z,3.80
2023-04-25T05:31:56.684Z,3.57
2023-04-25T05:34:24.492Z,3.67
2023-04-25T05:36:52.293Z,3.70
2023-04-25T05:39:20.011Z,3.70
2023-04-25T05:41:49.163Z,3.53
2023-04-25T05:44:17.858Z,3.47
2023-04-25T05:46:45.658Z,3.23
2023-04-25T05:49:13.373Z,3.50
2023-04-25T05:51:41.123Z,3.83
2023-04-25T05:54:08.868Z,3.80
2023-04-25T05:56:36.629Z,3.80
2023-04-25T05:59:06.058Z,3.60
2023-04-25T06:01:33.877Z,3.80
2023-04-25T06:04:03.043Z,3.70
2023-04-25T06:06:34.174Z,3.80
2023-04-25T06:09:01.953Z,3.70
2023-04-25T06:11:29.716Z,3.80
2023-04-25T06:13:57.461Z,3.53
2023-04-25T06:16:27.226Z,4.20
2023-04-25T06:18:55.142Z,4.27
2023-04-25T06:21:22.964Z,3.50
2023-04-25T06:23:50.909Z,3.10
2023-04-25T06:26:19.001Z,3.37
2023-04-25T06:28:46.858Z,3.60
2023-04-25T06:31:14.755Z,3.70
2023-04-25T06:33:43.990Z,3.20
2023-04-25T06:36:11.879Z,3.10
2023-04-25T06:38:39.659Z,3.10
2023-04-25T06:41:07.427Z,3.10
2023-04-25T06:43:35.288Z,3.20
2023-04-25T06:46:03.064Z,3.20
2023-04-25T06:48:30.876Z,3.23
2023-04-25T06:51:00.020Z,3.60
2023-04-25T06:53:27.780Z,3.40
2023-04-25T06:55:55.700Z,3.60
2023-04-25T06:58:23.483Z,3.50
2023-04-25T07:00:51.285Z,3.43
2023-04-25T07:03:19.078Z,3.57
2023-04-25T07:05:47.196Z,3.30
2023-04-25T07:08:16.333Z,3.57
2023-04-25T07:10:44.048Z,3.30
2023-04-25T07:13:11.813Z,3.33
2023-04-25T07:15:39.663Z,3.50
2023-04-25T07:18:07.468Z,3.40
2023-04-25T07:20:35.221Z,3.80
2023-04-25T07:23:02.994Z,4.03
2023-04-25T07:25:32.703Z,3.20
2023-04-25T07:28:00.512Z,3.60
2023-04-25T07:30:28.534Z,3.77
2023-04-25T07:32:56.549Z,3.90
2023-04-25T07:35:24.576Z,3.97
2023-04-25T07:37:52.737Z,3.97
2023-04-25T07:40:20.463Z,4.47
2023-04-25T07:42:49.557Z,3.90
2023-04-25T07:45:17.376Z,4.10
2023-04-25T07:47:45.524Z,4.30
2023-04-25T07:50:13.501Z,3.90
2023-04-25T07:52:41.242Z,4.20
2023-04-25T07:55:09.437Z,3.63
2023-04-25T07:57:37.190Z,4.30
2023-04-25T08:00:10.287Z,4.17
2023-04-25T08:02:38.262Z,4.03
2023-04-25T08:05:08.047Z,3.43
2023-04-25T08:07:36.146Z,3.60
2023-04-25T08:10:04.257Z,3.33
2023-04-25T08:12:32.029Z,3.70
2023-04-25T08:14:59.728Z,3.80
2023-04-25T08:17:28.867Z,3.23
2023-04-25T08:19:56.960Z,3.07
2023-04-25T08:22:24.796Z,3.40
2023-04-25T08:24:55.732Z,3.00
2023-04-25T08:27:23.494Z,2.40
2023-04-25T08:29:51.530Z,2.43
2023-04-25T08:32:19.326Z,2.07
2023-04-25T08:34:48.474Z,1.80
2023-04-25T08:37:16.251Z,1.70
2023-04-25T08:39:44.272Z,1.70
2023-04-25T08:42:12.950Z,1.30
2023-04-25T08:44:40.789Z,1.27
2023-04-25T08:47:08.927Z,1.30
2023-04-25T08:49:37.067Z,1.30
2023-04-25T08:52:07.809Z,1.20
2023-04-25T08:54:38.417Z,1.23
2023-04-25T08:57:07.797Z,1.30
2023-04-25T08:59:39.219Z,1.27
2023-04-25T09:02:07.283Z,1.27
2023-04-25T09:04:35.098Z,1.40
2023-04-25T09:07:02.988Z,1.50
2023-04-25T09:09:32.271Z,1.30
2023-04-25T09:12:00.608Z,1.20
2023-04-25T09:14:29.042Z,1.40
2023-04-25T09:17:01.362Z,1.20
2023-04-25T09:19:41.477Z,1.20
2023-04-25T09:22:10.192Z,1.20
2023-04-25T09:24:40.529Z,1.10
2023-04-25T09:27:08.951Z,1.03
2023-04-25T09:29:37.338Z,1.10
2023-04-25T09:32:16.340Z,1.10
2023-04-25T09:34:44.914Z,1.00
2023-04-25T09:37:13.048Z,1.00
2023-04-25T09:39:42.311Z,1.10
2023-04-25T09:42:11.535Z,0.90
2023-04-25T09:44:39.274Z,0.90
2023-04-25T09:47:11.576Z,0.80
2023-04-25T09:49:41.628Z,0.80
2023-04-25T09:52:09.422Z,0.90
2023-04-25T09:54:37.219Z,0.90
2023-04-25T09:57:12.237Z,0.93
2023-04-25T09:59:41.305Z,1.00
2023-04-25T10:02:10.348Z,0.90
2023-04-25T10:04:38.243Z,0.90
2023-04-25T10:07:07.380Z,1.10
2023-04-25T10:09:36.161Z,1.07
2023-04-25T10:12:04.677Z,1.10
2023-04-25T10:14:33.983Z,1.10
2023-04-25T10:17:02.367Z,1.00
2023-04-25T10:19:30.544Z,1.10
2023-04-25T10:22:04.080Z,1.10
2023-04-25T10:24:31.805Z,0.90
2023-04-25T10:26:59.743Z,0.93
2023-04-25T10:29:28.117Z,1.00
2023-04-25T10:31:57.530Z,1.00
2023-04-25T10:34:40.904Z,1.00
2023-04-25T10:37:11.205Z,0.80
2023-04-25T10:39:40.617Z,0.90
2023-04-25T10:42:08.866Z,1.00
2023-04-25T10:44:36.988Z,1.00
2023-04-25T10:47:08.531Z,0.93
2023-04-25T10:49:37.140Z,1.00
2023-04-25T10:52:21.438Z,0.83
2023-04-25T10:54:49.368Z,0.90
2023-04-25T10:57:36.434Z,0.90
2023-04-25T11:00:10.272Z,0.90
2023-04-25T11:02:48.105Z,0.90
2023-04-25T11:05:23.811Z,1.00
2023-04-25T11:08:03.835Z,0.90
2023-04-25T11:10:32.627Z,0.80
2023-04-25T11:13:01.115Z,1.00
2023-04-25T11:15:29.072Z,1.10
2023-04-25T11:17:58.217Z,1.10
2023-04-25T11:20:29.643Z,1.00
2023-04-25T11:22:59.537Z,1.10
2023-04-25T11:25:27.970Z,1.10
2023-04-25T11:27:56.997Z,1.00
2023-04-25T11:30:25.627Z,1.10
2023-04-25T11:32:54.045Z,1.20
2023-04-25T11:35:24.369Z,1.10
2023-04-25T11:37:52.160Z,1.07
2023-04-25T11:40:19.905Z,1.00
2023-04-25T11:42:48.316Z,1.03
2023-04-25T11:45:16.568Z,1.10
2023-04-25T11:47:44.397Z,1.20
2023-04-25T11:50:12.401Z,1.10
2023-04-25T11:52:42.402Z,0.90
2023-04-25T11:55:11.623Z,1.10
2023-04-25T11:57:40.688Z,1.10
2023-04-25T12:00:15.675Z,1.20
2023-04-25T12:02:45.825Z,1.10
2023-04-25T12:05:30.452Z,1.20
2023-04-25T12:08:11.486Z,1.20
2023-04-25T12:10:39.542Z,1.20
2023-04-25T12:13:20.191Z,1.10
2023-04-25T12:15:47.987Z,1.10
2023-04-25T12:18:15.812Z,0.90
2023-04-25T12:20:43.770Z,1.00
2023-04-25T12:23:13.619Z,1.10
2023-04-25T12:25:42.142Z,1.20
2023-04-25T12:28:14.049Z,1.20
2023-04-25T12:30:55.006Z,1.30
2023-04-25T12:33:22.826Z,1.20
2023-04-25T12:35:50.622Z,1.20
2023-04-25T12:38:24.400Z,1.20
2023-04-25T12:40:52.103Z,1.10
2023-04-25T12:43:19.879Z,1.00
2023-04-25T12:45:49.459Z,1.13
2023-04-25T12:48:17.216Z,1.20
2023-04-25T12:50:45.726Z,1.10
2023-04-25T12:53:13.668Z,1.13
2023-04-25T12:55:42.837Z,1.10
2023-04-25T12:58:10.588Z,1.27
2023-04-25T13:00:38.867Z,1.03
2023-04-25T13:03:07.027Z,1.20
2023-04-25T13:05:34.853Z,1.10
2023-04-25T13:08:02.602Z,1.00
2023-04-25T13:10:30.597Z,1.10
2023-04-25T13:12:59.753Z,1.20
2023-04-25T13:15:27.530Z,1.17
2023-04-25T13:17:55.318Z,1.20
2023-04-25T13:20:23.460Z,1.20
2023-04-25T13:22:51.313Z,1.30
2023-04-25T13:25:19.878Z,1.20
2023-04-25T13:27:47.617Z,1.10
2023-04-25T13:30:16.865Z,1.00
2023-04-25T13:32:44.926Z,1.00
2023-04-25T13:35:13.525Z,1.10
2023-04-25T13:37:41.703Z,1.10
2023-04-25T13:40:11.215Z,1.10
2023-04-25T13:42:39.269Z,1.10
2023-04-25T13:45:07.677Z,1.00
2023-04-25T13:47:36.821Z,1.20
2023-04-25T13:50:04.660Z,1.20
2023-04-25T13:52:32.694Z,1.10
2023-04-25T13:55:00.713Z,1.20
2023-04-25T13:57:28.499Z,1.10
2023-04-25T13:59:56.310Z,1.10
2023-04-25T14:02:24.132Z,1.10
2023-04-25T14:04:53.363Z,1.20
2023-04-25T14:07:22.088Z,1.20
2023-04-25T14:09:49.827Z,1.10
2023-04-25T14:12:18.711Z,1.20
2023-04-25T14:14:46.889Z,1.20
2023-04-25T14:17:14.588Z,1.10
2023-04-25T14:19:44.437Z,1.27
2023-04-25T14:22:13.747Z,1.17
2023-04-25T14:24:41.496Z,1.03
2023-04-25T14:27:09.265Z,1.10
2023-04-25T14:29:37.030Z,1.10
2023-04-25T14:32:06.297Z,1.10
2023-04-25T14:34:34.029Z,0.90
2023-04-25T14:37:02.215Z,1.07
2023-04-25T14:39:31.375Z,0.80
2023-04-25T14:41:59.090Z,1.07
2023-04-25T14:44:26.784Z,1.00
2023-04-25T14:46:54.704Z,1.10
2023-04-25T14:49:22.491Z,1.13
2023-04-25T14:51:52.000Z,1.00
2023-04-25T14:54:19.733Z,1.10
2023-04-25T14:56:48.899Z,0.90
2023-04-25T14:59:16.609Z,1.00
2023-04-25T15:01:44.949Z,1.13
2023-04-25T15:04:13.687Z,1.00
2023-04-25T15:06:41.450Z,1.00
2023-04-25T15:09:09.505Z,1.10
2023-04-25T15:11:37.327Z,1.00
2023-04-25T15:14:06.729Z,1.10
2023-04-25T15:16:34.506Z,0.93
2023-04-25T15:19:04.849Z,1.00
2023-04-25T15:21:32.595Z,1.00
2023-04-25T15:24:00.656Z,1.20
2023-04-25T15:26:28.766Z,1.20
2023-04-25T15:28:56.927Z,1.20
2023-04-25T15:31:26.273Z,1.20
2023-04-25T15:33:54.212Z,1.20
2023-04-25T15:36:22.556Z,1.30
2023-04-25T15:38:50.927Z,1.27
2023-04-25T15:41:19.413Z,1.30
2023-04-25T15:43:49.346Z,1.20
2023-04-25T15:46:17.670Z,1.30
2023-04-25T15:48:46.974Z,1.20
2023-04-25T15:51:14.744Z,1.10
2023-04-25T15:53:42.529Z,1.10
2023-04-25T15:56:10.337Z,1.10
2023-04-25T15:58:38.105Z,1.00
2023-04-25T16:01:06.003Z,0.90
2023-04-25T16:03:35.381Z,1.10
2023-04-25T16:06:06.070Z,1.10
2023-04-25T16:08:35.793Z,1.20
2023-04-25T16:11:03.649Z,1.20
2023-04-25T16:13:31.503Z,1.30
2023-04-25T16:15:59.292Z,1.27
2023-04-25T16:18:27.141Z,1.40
2023-04-25T16:20:55.232Z,1.40
2023-04-25T16:23:24.428Z,1.57
2023-04-25T16:25:52.143Z,1.60
2023-04-25T16:28:19.863Z,1.50
2023-04-25T16:30:47.572Z,1.30
2023-04-25T16:33:15.365Z,1.40
2023-04-25T16:35:43.237Z,1.20
2023-04-25T16:38:11.092Z,1.30
2023-04-25T16:40:40.229Z,1.10
2023-04-25T16:43:07.957Z,1.23
2023-04-25T16:45:35.666Z,1.20
2023-04-25T16:48:03.420Z,1.40
2023-04-25T16:50:31.225Z,1.20
2023-04-25T16:52:58.950Z,1.20
2023-04-25T16:55:26.815Z,1.20
2023-04-25T16:57:55.922Z,1.30
2023-04-25T17:00:23.853Z,1.27
2023-04-25T17:02:52.407Z,1.30
2023-04-25T17:05:20.539Z,1.20
2023-04-25T17:07:48.399Z,1.20
2023-04-25T17:10:16.221Z,1.20
2023-04-25T17:12:43.930Z,1.10
2023-04-25T17:15:13.272Z,1.10
2023-04-25T17:17:41.119Z,1.20
2023-04-25T17:20:09.945Z,1.10
2023-04-25T17:22:38.722Z,1.10
2023-04-25T17:25:07.241Z,1.10
2023-04-25T17:27:35.022Z,1.00
2023-04-25T17:30:03.772Z,1.00
2023-04-25T17:32:32.917Z,1.00
2023-04-25T17:35:00.725Z,0.90
2023-04-25T17:37:28.907Z,1.00
2023-04-25T17:39:56.690Z,1.10
2023-04-25T17:42:24.434Z,1.10
2023-04-25T17:44:52.456Z,1.00
2023-04-25T17:47:20.189Z,1.10
2023-04-25T17:49:49.320Z,1.10
2023-04-25T17:52:17.079Z,1.10
2023-04-25T17:54:44.799Z,0.93
2023-04-25T17:57:12.660Z,1.07
2023-04-25T17:59:40.412Z,1.00
2023-04-25T18:02:08.974Z,1.00
2023-04-25T18:04:36.996Z,1.00
2023-04-25T18:07:07.432Z,1.00
2023-04-25T18:09:35.250Z,1.10
2023-04-25T18:12:03.671Z,1.20
2023-04-25T18:14:33.148Z,1.10
2023-04-25T18:17:01.238Z,1.10
2023-04-25T18:19:28.928Z,1.10
2023-04-25T18:21:56.991Z,1.07
2023-04-25T18:24:27.262Z,1.20
2023-04-25T18:26:56.909Z,1.10
2023-04-25T18:29:33.072Z,1.10
2023-04-25T18:32:01.664Z,1.00
2023-04-25T18:34:29.473Z,1.00
2023-04-25T18:36:57.994Z,0.90
2023-04-25T18:39:27.898Z,1.10
2023-04-25T18:42:03.255Z,1.23
2023-04-25T18:44:35.647Z,1.20
2023-04-25T18:47:03.483Z,1.10
2023-04-25T18:49:32.445Z,1.13
2023-04-25T18:52:02.494Z,1.10
2023-04-25T18:54:32.045Z,1.10
2023-04-25T18:57:01.246Z,1.10
2023-04-25T18:59:29.129Z,1.10
2023-04-25T19:01:57.009Z,1.10
2023-04-25T19:04:24.934Z,1.00
2023-04-25T19:06:54.233Z,1.20
2023-04-25T19:09:22.113Z,1.10
2023-04-25T19:11:51.313Z,0.90
2023-04-25T19:14:19.104Z,1.00
2023-04-25T19:16:46.878Z,1.00
2023-04-25T19:19:14.883Z,1.00
2023-04-25T19:21:42.857Z,1.00
2023-04-25T19:24:11.465Z,0.80
2023-04-25T19:26:39.378Z,0.80
2023-04-25T19:29:09.425Z,0.80
2023-04-25T19:31:37.737Z,0.90
2023-04-25T19:34:05.937Z,0.87
2023-04-25T19:36:33.910Z,1.00
2023-04-25T19:39:04.799Z,0.97
2023-04-25T19:41:33.560Z,0.90
2023-04-25T19:44:01.898Z,0.90
2023-04-25T19:46:32.083Z,0.87
2023-04-25T19:49:00.112Z,0.80
2023-04-25T19:51:28.338Z,0.80
2023-04-25T19:53:56.209Z,0.90
2023-04-25T19:56:24.465Z,0.80
2023-04-25T19:58:52.731Z,0.80
2023-04-25T20:01:22.447Z,0.90
2023-04-25T20:03:52.761Z,0.90
2023-04-25T20:06:20.959Z,0.90
2023-04-25T20:08:48.891Z,0.80
2023-04-25T20:11:16.733Z,0.90
2023-04-25T20:13:44.917Z,0.80
2023-04-25T20:16:12.811Z,0.80
2023-04-25T20:18:41.587Z,0.80
2023-04-25T20:21:10.960Z,0.90
2023-04-25T20:23:38.655Z,0.90
2023-04-25T20:26:06.670Z,0.90
2023-04-25T20:28:35.574Z,1.00
2023-04-25T20:31:03.289Z,0.80
2023-04-25T20:33:31.237Z,1.00
2023-04-25T20:35:59.024Z,0.80
2023-04-25T20:38:28.510Z,0.90
2023-04-25T20:40:56.929Z,0.87
2023-04-25T20:43:25.872Z,1.10
2023-04-25T20:45:54.962Z,0.87
2023-04-25T20:48:23.005Z,0.90
2023-04-25T20:50:51.016Z,0.90
2023-04-25T20:53:18.723Z,0.90
2023-04-25T20:55:48.167Z,0.90
2023-04-25T20:58:16.317Z,0.90
2023-04-25T21:00:44.154Z,0.90
2023-04-25T21:03:13.153Z,0.90
2023-04-25T21:05:41.016Z,0.90
2023-04-25T21:08:08.813Z,0.90
2023-04-25T21:10:37.478Z,0.90
2023-04-25T21:13:07.018Z,0.90
2023-04-25T21:15:34.808Z,0.90
2023-04-25T21:18:03.049Z,0.87
2023-04-25T21:20:30.826Z,0.90
2023-04-25T21:22:58.589Z,0.90
2023-04-25T21:25:30.999Z,0.90
2023-04-25T21:27:59.482Z,0.90
2023-04-25T21:30:28.635Z,1.03
2023-04-25T21:32:56.510Z,1.07
2023-04-25T21:35:24.503Z,0.87
2023-04-25T21:37:52.586Z,1.07
2023-04-25T21:40:20.434Z,0.90
2023-04-25T21:42:51.330Z,1.00
2023-04-25T21:45:19.973Z,0.90
2023-04-25T21:47:49.519Z,0.90
2023-04-25T21:50:18.001Z,0.90
2023-04-25T21:52:45.723Z,1.10
2023-04-25T21:55:13.484Z,1.17
2023-04-25T21:57:41.316Z,1.10
2023-04-25T22:00:20.692Z,1.00
2023-04-25T22:02:50.079Z,1.10
2023-04-25T22:05:20.379Z,1.03
2023-04-25T22:07:48.088Z,0.90
2023-04-25T22:10:16.275Z,0.97
2023-04-25T22:12:44.712Z,1.00
2023-04-25T22:15:13.090Z,1.00
2023-04-25T22:17:41.476Z,1.10
2023-04-25T22:20:14.175Z,1.00
2023-04-25T22:22:42.056Z,1.10
2023-04-25T22:25:12.009Z,1.10
2023-04-25T22:27:40.935Z,0.90
2023-04-25T22:30:09.428Z,1.10
2023-04-25T22:32:37.225Z,1.07
2023-04-25T22:35:05.390Z,1.10
2023-04-25T22:37:35.873Z,1.10
2023-04-25T22:40:05.770Z,1.13
2023-04-25T22:42:38.187Z,1.10
2023-04-25T22:45:06.235Z,1.10
2023-04-25T22:47:33.984Z,1.00
2023-04-25T22:50:04.064Z,1.00
2023-04-25T22:52:32.450Z,1.10
2023-04-25T22:55:01.651Z,1.00
2023-04-25T22:57:29.591Z,1.00
2023-04-25T22:59:57.616Z,1.00
2023-04-25T23:02:26.281Z,1.00
2023-04-25T23:04:55.028Z,1.00
2023-04-25T23:07:23.619Z,1.00
2023-04-25T23:09:51.294Z,0.90
2023-04-25T23:12:20.454Z,0.90
2023-04-25T23:14:51.915Z,1.00
2023-04-25T23:17:20.389Z,0.80
2023-04-25T23:19:48.364Z,1.10
2023-04-25T23:22:16.177Z,1.20
2023-04-25T23:24:43.930Z,1.10
2023-04-25T23:27:11.717Z,1.10
2023-04-25T23:29:40.986Z,1.30
2023-04-25T23:32:09.009Z,1.10
2023-04-25T23:34:36.737Z,1.17
2023-04-25T23:37:04.567Z,1.30
2023-04-25T23:39:32.372Z,1.10
2023-04-25T23:42:00.483Z,1.10
2023-04-25T23:44:28.311Z,1.00
2023-04-25T23:46:57.457Z,1.10
2023-04-25T23:49:25.153Z,1.13
2023-04-25T23:51:53.774Z,1.20
2023-04-25T23:54:21.502Z,1.10
2023-04-25T23:56:49.217Z,0.97
2023-04-25T23:59:17.033Z,1.20
